Time;durP1;ratioP1;P1;durP2;ratioP2;P2;SDS_P1;SDS_P2;PMS_P1;PMS_P2;Temp;Humidity;BMP_temperature;BMP_pressure;BME280_temperature;BME280_humidity;BME280_pressure;Samples;Min_cycle;Max_cycle;Signal;HPM_P1;HPM_P2
2022/09/23 00:01:00;;;;;;;7.07;5.43;;;14.40;86.00;;;;;;5021842;28;20484;-84
2022/09/23 00:03:28;;;;;;;7.30;5.57;;;14.50;86.00;;;;;;5024627;28;20492;-85
2022/09/23 00:05:58;;;;;;;7.53;5.78;;;14.40;86.00;;;;;;5022789;28;20033;-84
2022/09/23 00:08:24;;;;;;;7.35;5.78;;;14.40;86.00;;;;;;5020715;28;20040;-85
2022/09/23 00:10:50;;;;;;;8.82;6.40;;;14.40;85.90;;;;;;5022477;28;20073;-85
2022/09/23 00:13:16;;;;;;;6.43;5.80;;;14.50;85.90;;;;;;5022014;28;20057;-85
2022/09/23 00:15:42;;;;;;;6.47;5.82;;;14.40;85.90;;;;;;5020889;28;20025;-85
2022/09/23 00:18:08;;;;;;;6.72;5.47;;;14.40;85.90;;;;;;5019107;28;20037;-83
2022/09/23 00:20:35;;;;;;;7.72;5.82;;;14.40;86.00;;;;;;5016126;28;20390;-87
2022/09/23 00:23:01;;;;;;;8.73;6.40;;;14.30;85.90;;;;;;5022057;28;20044;-79
2022/09/23 00:25:28;;;;;;;6.95;5.90;;;14.30;86.00;;;;;;5000382;28;20536;-86
2022/09/23 00:27:55;;;;;;;6.10;5.50;;;14.30;86.00;;;;;;5023143;28;20082;-84
2022/09/23 00:30:22;;;;;;;8.68;5.63;;;14.30;86.00;;;;;;5023370;28;20037;-80
2022/09/23 00:32:48;;;;;;;7.25;6.05;;;14.30;86.00;;;;;;5021328;28;20623;-82
2022/09/23 00:35:14;;;;;;;6.40;5.57;;;14.30;86.00;;;;;;5022158;28;20516;-84
2022/09/23 00:37:40;;;;;;;7.35;5.93;;;14.30;86.00;;;;;;5020940;28;20041;-81
2022/09/23 00:40:07;;;;;;;7.78;6.13;;;14.30;86.00;;;;;;5019368;28;20095;-84
2022/09/23 00:42:33;;;;;;;9.40;5.85;;;14.30;86.00;;;;;;5021497;28;20095;-82
2022/09/23 00:45:00;;;;;;;6.97;6.28;;;14.30;86.10;;;;;;5008410;28;20029;-85
2022/09/23 00:48:00;;;;;;;7.38;5.90;;;14.30;86.20;;;;;;5005221;28;20416;-85
2022/09/23 00:50:37;;;;;;;7.35;6.15;;;14.30;86.20;;;;;;5023479;28;20382;-85
2022/09/23 00:53:08;;;;;;;6.40;5.80;;;14.30;86.10;;;;;;5035119;28;20064;-86
2022/09/23 00:55:47;;;;;;;8.75;6.40;;;14.30;86.10;;;;;;5036494;28;20036;-85
2022/09/23 00:58:17;;;;;;;8.25;6.45;;;14.30;86.20;;;;;;5024924;28;20091;-86
2022/09/23 01:00:45;;;;;;;7.47;6.43;;;14.30;86.20;;;;;;5028603;28;20041;-87
2022/09/23 01:03:12;;;;;;;8.80;6.93;;;14.30;86.20;;;;;;5021916;28;20045;-86
2022/09/23 01:05:39;;;;;;;7.63;6.53;;;14.20;86.20;;;;;;5024924;28;20041;-87
2022/09/23 01:08:07;;;;;;;6.35;5.75;;;14.20;86.20;;;;;;5021360;28;20040;-87
2022/09/23 01:10:51;;;;;;;6.82;6.05;;;14.30;86.20;;;;;;5024113;28;20038;-84
2022/09/23 01:13:42;;;;;;;6.53;5.70;;;14.30;86.20;;;;;;5020333;28;20314;-85
2022/09/23 01:16:19;;;;;;;8.90;7.10;;;14.30;86.10;;;;;;5007791;28;20036;-85
2022/09/23 01:18:53;;;;;;;6.72;5.68;;;14.20;86.00;;;;;;5023574;28;20041;-89
2022/09/23 01:21:30;;;;;;;7.22;6.20;;;14.20;86.10;;;;;;5019460;28;20121;-88
2022/09/23 01:24:31;;;;;;;7.43;5.88;;;14.20;86.10;;;;;;5021491;28;20037;-84
2022/09/23 01:27:40;;;;;;;7.82;6.45;;;14.20;86.20;;;;;;5019924;28;20755;-80
2022/09/23 01:30:18;;;;;;;8.82;6.95;;;14.20;86.10;;;;;;5019589;28;20038;-85
2022/09/23 01:32:56;;;;;;;9.57;6.38;;;14.20;86.10;;;;;;5032884;28;20041;-86
2022/09/23 01:35:53;;;;;;;7.13;6.20;;;14.20;86.10;;;;;;5010041;28;20048;-85
2022/09/23 01:38:30;;;;;;;8.60;6.63;;;14.20;86.30;;;;;;5003980;28;20088;-85
2022/09/23 01:41:15;;;;;;;7.55;6.28;;;14.20;86.30;;;;;;5009301;28;20057;-86
2022/09/23 01:44:07;;;;;;;8.40;6.47;;;14.20;86.30;;;;;;5013324;28;20539;-85
2022/09/23 01:46:39;;;;;;;7.47;6.03;;;14.20;86.30;;;;;;5021715;28;20041;-84
2022/09/23 01:49:15;;;;;;;7.07;5.85;;;14.20;86.20;;;;;;5021665;28;20037;-85
2022/09/23 01:51:47;;;;;;;6.00;5.00;;;14.20;86.10;;;;;;5017721;28;20065;-84
2022/09/23 01:54:37;;;;;;;7.95;6.00;;;14.20;86.00;;;;;;5032692;28;20080;-83
2022/09/23 01:57:11;;;;;;;5.70;5.20;;;14.20;85.90;;;;;;5017460;28;20049;-83
2022/09/23 01:59:41;;;;;;;5.95;5.35;;;14.20;85.80;;;;;;5017767;28;20468;-83
2022/09/23 02:02:14;;;;;;;5.55;5.03;;;14.20;85.80;;;;;;5006663;28;20042;-84
2022/09/23 02:04:57;;;;;;;6.45;5.43;;;14.10;85.80;;;;;;5017853;28;20045;-84
2022/09/23 02:07:42;;;;;;;6.10;5.18;;;14.10;85.80;;;;;;5020659;28;20038;-84
2022/09/23 02:10:18;;;;;;;7.20;5.78;;;14.10;85.80;;;;;;5022930;28;20046;-85
2022/09/23 02:12:48;;;;;;;7.68;5.65;;;14.10;85.70;;;;;;5019414;28;20404;-85
2022/09/23 02:15:24;;;;;;;6.47;5.60;;;14.10;85.70;;;;;;5020617;28;20030;-85
2022/09/23 02:17:51;;;;;;;;;;;14.10;85.70;;;;;;5022464;28;20037;-84
2022/09/23 02:20:23;;;;;;;5.53;5.03;;;14.10;85.60;;;;;;5024713;28;20380;-83
2022/09/23 02:23:01;;;;;;;5.60;5.10;;;14.10;85.50;;;;;;5022507;28;20033;-86
2022/09/23 02:25:43;;;;;;;7.25;5.65;;;14.20;85.50;;;;;;5020716;28;20468;-86
2022/09/23 02:28:34;;;;;;;5.93;5.07;;;14.10;85.40;;;;;;5022984;28;20463;-84
2022/09/23 02:31:10;;;;;;;5.70;5.10;;;14.10;85.50;;;;;;5025865;28;20033;-88
2022/09/23 02:34:01;;;;;;;6.15;4.95;;;14.10;85.50;;;;;;5024223;28;20041;-85
2022/09/23 02:36:45;;;;;;;7.60;5.55;;;14.10;85.50;;;;;;5024999;28;20033;-89
2022/09/23 02:39:13;;;;;;;7.40;5.90;;;14.10;85.60;;;;;;5010770;28;20045;-87
2022/09/23 02:41:45;;;;;;;7.22;5.00;;;14.10;85.70;;;;;;5008365;28;20038;-87
2022/09/23 02:44:14;;;;;;;7.22;5.35;;;14.10;85.70;;;;;;5008876;28;20123;-86
2022/09/23 02:46:42;;;;;;;6.72;5.55;;;14.10;85.80;;;;;;5007249;28;20041;-85
2022/09/23 02:49:28;;;;;;;6.82;5.50;;;14.10;85.90;;;;;;5006230;28;20083;-82
2022/09/23 02:51:55;;;;;;;6.65;5.72;;;14.10;86.00;;;;;;5010689;28;20034;-87
2022/09/23 02:54:24;;;;;;;6.13;5.47;;;14.10;86.00;;;;;;5021768;28;20034;-87
2022/09/23 02:56:52;;;;;;;6.22;5.43;;;14.10;86.00;;;;;;5005449;28;20033;-86
2022/09/23 02:59:20;;;;;;;7.28;5.70;;;14.10;86.10;;;;;;4994919;28;20088;-87
2022/09/23 03:01:46;;;;;;;7.25;5.80;;;14.10;86.10;;;;;;5006957;28;20456;-87
2022/09/23 03:04:24;;;;;;;6.95;5.30;;;14.10;86.30;;;;;;5005436;28;20091;-83
2022/09/23 03:07:13;;;;;;;7.72;6.18;;;14.10;86.30;;;;;;5009323;28;20037;-88
2022/09/23 03:09:54;;;;;;;8.18;5.88;;;14.10;86.30;;;;;;5008928;28;20485;-87
2022/09/23 03:12:29;;;;;;;7.43;5.88;;;14.10;86.30;;;;;;5019083;28;20049;-85
2022/09/23 03:15:08;;;;;;;7.75;6.18;;;14.10;86.40;;;;;;4993710;28;20584;-88
2022/09/23 03:17:55;;;;;;;6.50;5.80;;;14.10;86.40;;;;;;5008934;28;20033;-86
2022/09/23 03:20:30;;;;;;;8.32;6.28;;;14.10;86.50;;;;;;5007483;28;20040;-84
2022/09/23 03:23:00;;;;;;;8.32;6.15;;;14.10;86.50;;;;;;5006417;28;20034;-78
2022/09/23 03:25:30;;;;;;;6.50;5.72;;;14.10;86.60;;;;;;5007697;28;20567;-84
2022/09/23 03:27:58;;;;;;;6.65;5.78;;;14.10;86.70;;;;;;5008034;28;20365;-79
2022/09/23 03:30:25;;;;;;;6.88;6.18;;;14.00;86.80;;;;;;5003878;28;20423;-81
2022/09/23 03:32:51;;;;;;;8.15;5.95;;;14.10;86.80;;;;;;5007059;28;20429;-84
2022/09/23 03:35:18;;;;;;;7.65;6.00;;;14.10;86.80;;;;;;5009280;28;20534;-82
2022/09/23 03:37:59;;;;;;;7.13;6.05;;;14.10;86.80;;;;;;5011478;28;20485;-84
2022/09/23 03:40:42;;;;;;;8.32;6.43;;;14.10;86.70;;;;;;5004278;28;20056;-85
2022/09/23 03:43:12;;;;;;;7.28;5.85;;;14.10;86.60;;;;;;5009277;28;20030;-83
2022/09/23 03:45:41;;;;;;;6.82;5.90;;;14.10;86.50;;;;;;5024105;28;20033;-84
2022/09/23 03:48:07;;;;;;;6.85;5.93;;;14.10;86.50;;;;;;5023245;28;20037;-85
2022/09/23 03:50:34;;;;;;;8.57;6.70;;;14.10;86.50;;;;;;5022886;28;20661;-83
2022/09/23 03:53:00;;;;;;;7.57;6.10;;;14.10;86.40;;;;;;5022793;28;20128;-83
2022/09/23 03:55:26;;;;;;;6.35;5.28;;;14.10;86.30;;;;;;5024030;28;20045;-84
2022/09/23 03:57:54;;;;;;;7.70;6.50;;;14.10;86.30;;;;;;5023354;28;20088;-83
2022/09/23 04:00:20;;;;;;;6.57;5.22;;;14.10;86.70;;;;;;5023668;28;20030;-83
2022/09/23 04:02:46;;;;;;;6.75;5.82;;;14.20;86.00;;;;;;5022062;28;20037;-86
2022/09/23 04:05:12;;;;;;;7.00;5.97;;;14.20;85.90;;;;;;5024093;28;20464;-85
2022/09/23 04:07:38;;;;;;;8.05;6.45;;;14.20;85.80;;;;;;5040161;28;20033;-90
2022/09/23 04:10:05;;;;;;;8.45;5.75;;;14.20;85.70;;;;;;5023328;28;20033;-86
2022/09/23 04:12:31;;;;;;;7.53;5.93;;;14.20;85.40;;;;;;5023659;28;20025;-87
2022/09/23 04:14:57;;;;;;;6.45;5.57;;;14.20;85.40;;;;;;5023104;28;20034;-82
2022/09/23 04:17:22;;;;;;;8.27;6.30;;;14.20;85.30;;;;;;5023974;28;20092;-88
2022/09/23 04:19:48;;;;;;;9.07;6.03;;;14.20;85.40;;;;;;5021782;28;20061;-84
2022/09/23 04:22:14;;;;;;;7.55;6.03;;;14.20;85.40;;;;;;5023739;28;20033;-90
2022/09/23 04:24:40;;;;;;;7.20;6.10;;;14.20;85.40;;;;;;5024551;28;20037;-88
2022/09/23 04:27:06;;;;;;;7.47;5.95;;;14.20;85.30;;;;;;5004609;28;20077;-87
2022/09/23 04:29:32;;;;;;;9.27;5.82;;;14.20;85.20;;;;;;5013433;28;20045;-86
2022/09/23 04:31:58;;;;;;;6.00;5.35;;;14.20;85.10;;;;;;4993513;28;20096;-86
2022/09/23 04:34:24;;;;;;;8.38;5.93;;;14.30;85.10;;;;;;5010046;28;20107;-86
2022/09/23 04:36:50;;;;;;;6.95;5.55;;;14.30;85.00;;;;;;5007978;28;20025;-77
2022/09/23 04:39:16;;;;;;;7.00;5.43;;;14.30;84.90;;;;;;5006268;28;20040;-81
2022/09/23 04:41:43;;;;;;;7.03;5.50;;;14.30;84.80;;;;;;5001927;28;20042;-82
2022/09/23 04:44:13;;;;;;;6.97;5.43;;;14.30;84.50;;;;;;5002853;28;20045;-89
2022/09/23 04:46:40;;;;;;;5.55;4.88;;;14.30;84.40;;;;;;4974195;28;20393;-88
2022/09/23 04:49:06;;;;;;;6.20;5.10;;;14.30;84.30;;;;;;5009562;28;20038;-90
2022/09/23 04:51:33;;;;;;;6.45;5.22;;;14.30;84.20;;;;;;5036849;28;20029;-87
2022/09/23 04:53:59;;;;;;;5.80;4.55;;;14.30;84.00;;;;;;5037328;28;20064;-88
2022/09/23 04:56:27;;;;;;;5.90;4.65;;;14.40;83.90;;;;;;5022907;28;20042;-82
2022/09/23 04:58:56;;;;;;;5.95;4.90;;;14.40;83.70;;;;;;5020458;28;20037;-83
2022/09/23 05:01:26;;;;;;;6.93;4.75;;;14.40;83.70;;;;;;5008687;28;20548;-87
2022/09/23 05:04:01;;;;;;;6.53;5.03;;;14.40;83.90;;;;;;5035625;28;20421;-83
2022/09/23 05:06:28;;;;;;;5.85;4.43;;;14.50;83.90;;;;;;5020157;28;20397;-84
2022/09/23 05:08:56;;;;;;;5.95;4.75;;;14.50;83.70;;;;;;5021269;28;20029;-85
2022/09/23 05:11:23;;;;;;;7.05;4.72;;;14.50;83.90;;;;;;5021292;28;20034;-86
2022/09/23 05:13:52;;;;;;;4.88;4.38;;;14.50;84.10;;;;;;5020153;28;20041;-85
2022/09/23 05:16:18;;;;;;;6.00;5.00;;;14.60;84.20;;;;;;5052460;28;20034;-83
2022/09/23 05:18:45;;;;;;;5.07;4.20;;;14.60;84.00;;;;;;5019420;28;20157;-84
2022/09/23 05:21:13;;;;;;;6.80;4.13;;;14.70;83.90;;;;;;5023337;28;20084;-84
2022/09/23 05:23:40;;;;;;;4.53;3.60;;;14.70;83.80;;;;;;5020721;28;20030;-82
2022/09/23 05:26:09;;;;;;;8.20;4.57;;;14.80;83.70;;;;;;5020628;28;20045;-85
2022/09/23 05:28:36;;;;;;;5.82;4.40;;;14.80;83.30;;;;;;5021432;28;20029;-84
2022/09/23 05:31:03;;;;;;;5.13;4.32;;;14.90;83.00;;;;;;5020489;28;20132;-83
2022/09/23 05:33:30;;;;;;;4.97;4.10;;;14.90;82.90;;;;;;5024984;28;20496;-84
2022/09/23 05:35:56;;;;;;;5.57;4.65;;;14.90;82.80;;;;;;5022536;28;20099;-82
2022/09/23 05:38:22;;;;;;;5.15;4.28;;;14.90;82.50;;;;;;5008099;28;20041;-86
2022/09/23 05:40:55;;;;;;;5.97;4.50;;;14.90;82.50;;;;;;5020511;28;20040;-83
2022/09/23 05:43:21;;;;;;;6.30;4.20;;;14.90;82.50;;;;;;5025220;28;20034;-84
2022/09/23 05:45:47;;;;;;;5.22;4.72;;;15.00;82.60;;;;;;5021854;28;20034;-83
2022/09/23 05:48:13;;;;;;;5.15;4.20;;;15.00;82.60;;;;;;5023232;28;20079;-81
2022/09/23 05:50:39;;;;;;;6.78;4.00;;;15.00;82.60;;;;;;5020628;28;20037;-82
2022/09/23 05:53:04;;;;;;;4.53;4.13;;;15.00;82.50;;;;;;5023641;28;20038;-81
2022/09/23 05:55:30;;;;;;;5.60;4.07;;;15.00;82.40;;;;;;5006054;28;20036;-82
2022/09/23 05:57:56;;;;;;;4.93;4.30;;;15.10;82.40;;;;;;4997398;28;20034;-81
2022/09/23 06:00:22;;;;;;;6.57;4.78;;;15.10;82.50;;;;;;5023808;28;20111;-82
2022/09/23 06:02:48;;;;;;;4.80;4.30;;;15.10;82.30;;;;;;5010198;28;20409;-81
2022/09/23 06:05:15;;;;;;;5.30;4.25;;;15.10;82.30;;;;;;5024755;28;20034;-81
2022/09/23 06:07:41;;;;;;;5.20;4.22;;;15.10;82.10;;;;;;5026008;28;20052;-82
2022/09/23 06:10:07;;;;;;;4.53;3.80;;;15.10;82.00;;;;;;5023843;28;20497;-82
2022/09/23 06:12:34;;;;;;;5.20;3.88;;;15.10;81.80;;;;;;5025627;28;20489;-83
2022/09/23 06:15:00;;;;;;;4.45;3.72;;;15.10;81.70;;;;;;5023200;28;20044;-79
2022/09/23 06:17:26;;;;;;;4.95;3.85;;;15.10;81.70;;;;;;5022603;28;20416;-84
2022/09/23 06:19:52;;;;;;;4.18;3.78;;;15.10;81.50;;;;;;5021457;28;20630;-83
2022/09/23 06:22:17;;;;;;;4.70;4.20;;;15.10;81.40;;;;;;5022185;28;20431;-82
2022/09/23 06:24:43;;;;;;;4.40;4.00;;;15.10;81.50;;;;;;5024351;28;20107;-82
2022/09/23 06:27:09;;;;;;;5.80;3.85;;;15.10;81.50;;;;;;5023689;28;20044;-82
2022/09/23 06:29:35;;;;;;;4.68;3.83;;;15.00;81.60;;;;;;5023874;28;20041;-82
2022/09/23 06:32:03;;;;;;;4.97;3.53;;;15.00;82.00;;;;;;5020271;28;20045;-82
2022/09/23 06:34:28;;;;;;;4.93;3.90;;;15.00;82.20;;;;;;5016685;28;20034;-83
2022/09/23 06:36:54;;;;;;;4.10;3.35;;;15.00;82.20;;;;;;5009064;28;20034;-83
2022/09/23 06:39:20;;;;;;;4.55;3.72;;;15.00;82.30;;;;;;5011845;28;20139;-82
2022/09/23 06:41:46;;;;;;;4.20;3.80;;;15.00;82.50;;;;;;5011190;28;20041;-82
2022/09/23 06:44:13;;;;;;;4.32;3.92;;;15.00;82.60;;;;;;4994126;28;20044;-80
2022/09/23 06:46:39;;;;;;;4.35;3.95;;;15.00;82.60;;;;;;5011934;28;20034;-82
2022/09/23 06:49:05;;;;;;;5.13;4.20;;;15.00;82.60;;;;;;5009684;28;20425;-82
2022/09/23 06:51:31;;;;;;;5.20;4.03;;;15.00;82.60;;;;;;4994802;28;20029;-83
2022/09/23 06:53:57;;;;;;;4.15;3.72;;;15.00;82.40;;;;;;5008429;28;20060;-80
2022/09/23 06:56:23;;;;;;;4.22;3.63;;;15.00;82.20;;;;;;5006598;28;20041;-81
2022/09/23 06:58:51;;;;;;;4.13;3.60;;;15.10;82.20;;;;;;5008902;28;20069;-82
2022/09/23 07:01:18;;;;;;;4.40;3.67;;;15.00;82.10;;;;;;5025260;28;20041;-80
2022/09/23 07:03:46;;;;;;;3.85;3.47;;;15.10;82.00;;;;;;5021727;28;20029;-83
2022/09/23 13:01:05;;;;;;;;;;;15.40;77.10;;;;;;5093231;27;20754;-83
2022/09/23 13:09:01;;;;;;;4.53;3.97;;;15.80;75.60;;;;;;5046107;28;20025;-83
2022/09/23 13:11:30;;;;;;;4.30;3.88;;;15.80;75.60;;;;;;5046980;28;20279;-82
2022/09/23 13:14:00;;;;;;;4.57;4.18;;;15.80;75.20;;;;;;5040106;28;20388;-84
2022/09/23 13:16:57;;;;;;;4.85;4.40;;;15.90;75.00;;;;;;5054579;28;20064;-86
2022/09/23 13:19:26;;;;;;;4.50;4.10;;;15.90;74.20;;;;;;5020403;28;20474;-85
2022/09/23 13:22:07;;;;;;;5.40;4.38;;;15.90;73.90;;;;;;5039535;28;20029;-84
2022/09/23 13:24:38;;;;;;;6.35;4.57;;;15.90;74.00;;;;;;5009334;28;20604;-83
2022/09/23 13:27:15;;;;;;;9.48;4.72;;;15.90;74.00;;;;;;5019168;28;20026;-84
2022/09/23 13:29:44;;;;;;;4.90;4.40;;;15.90;74.60;;;;;;5031918;28;20697;-85
2022/09/23 13:32:16;;;;;;;5.63;4.50;;;15.90;75.10;;;;;;5024175;28;20047;-84
2022/09/23 13:34:57;;;;;;;4.70;4.28;;;15.90;75.00;;;;;;5037711;28;20396;-84
2022/09/23 13:37:31;;;;;;;5.03;4.53;;;15.90;74.80;;;;;;5055949;28;20218;-85
2022/09/23 13:40:30;;;;;;;4.82;4.20;;;15.90;74.20;;;;;;5038118;28;20120;-87
2022/09/23 13:43:11;;;;;;;4.65;4.25;;;15.90;73.70;;;;;;5000723;28;20072;-83
2022/09/23 13:45:42;;;;;;;5.60;4.80;;;15.90;73.60;;;;;;4988782;28;20075;-85
2022/09/23 13:48:13;;;;;;;5.18;4.50;;;15.90;73.80;;;;;;4993857;28;20119;-83
2022/09/23 13:50:46;;;;;;;5.10;4.40;;;15.90;73.90;;;;;;5026276;28;20053;-84
2022/09/23 13:53:19;;;;;;;4.20;3.80;;;15.90;73.80;;;;;;5012068;28;20029;-83
2022/09/23 13:55:45;;;;;;;5.28;4.18;;;15.90;73.60;;;;;;5031615;28;20041;-85
2022/09/23 13:58:21;;;;;;;4.20;3.80;;;15.80;73.50;;;;;;5041880;28;20550;-85
2022/09/23 14:00:48;;;;;;;4.57;4.05;;;15.80;73.60;;;;;;5021890;28;20041;-85
2022/09/23 14:03:33;;;;;;;4.47;3.95;;;15.80;73.60;;;;;;4996075;28;20037;-85
2022/09/23 14:06:03;;;;;;;4.80;3.78;;;15.80;73.70;;;;;;5016572;28;20108;-85
2022/09/23 14:08:30;;;;;;;4.65;4.25;;;15.80;73.80;;;;;;5030778;28;20041;-85
2022/09/23 14:11:00;;;;;;;6.57;4.10;;;15.80;73.90;;;;;;5038301;28;20042;-87
2022/09/23 14:13:27;;;;;;;4.32;3.70;;;15.80;74.00;;;;;;4978067;28;20042;-86
2022/09/23 14:15:59;;;;;;;4.90;3.90;;;15.80;73.90;;;;;;5025636;28;20049;-85
2022/09/23 14:18:39;;;;;;;5.30;4.20;;;15.80;73.90;;;;;;5022251;28;20117;-86
2022/09/23 14:21:24;;;;;;;4.95;4.00;;;15.80;74.20;;;;;;5002003;28;20025;-86
2022/09/23 14:23:50;;;;;;;5.05;4.20;;;15.80;74.30;;;;;;5022804;28;20040;-86
2022/09/23 14:26:17;;;;;;;4.72;3.97;;;15.70;74.20;;;;;;5035546;28;20396;-86
2022/09/23 14:28:45;;;;;;;4.97;4.07;;;15.70;74.30;;;;;;5028203;28;20530;-85
2022/09/23 14:31:11;;;;;;;4.72;4.15;;;15.70;74.20;;;;;;5042648;28;20439;-85
2022/09/23 14:33:40;;;;;;;4.88;3.90;;;15.70;74.30;;;;;;5026919;28;20131;-86
2022/09/23 14:39:07;;;;;;;5.45;4.18;;;15.70;74.50;;;;;;5057806;28;20384;-87
2022/09/23 14:41:39;;;;;;;8.60;4.00;;;15.70;74.40;;;;;;5039769;28;20033;-85
2022/09/23 14:44:06;;;;;;;4.82;3.92;;;15.70;74.50;;;;;;5038478;28;20044;-86
2022/09/23 14:46:35;;;;;;;7.50;4.82;;;15.70;74.70;;;;;;5057171;28;20046;-87
2022/09/23 14:49:10;;;;;;;6.88;4.43;;;15.70;74.70;;;;;;5039874;28;20036;-87
2022/09/23 14:51:44;;;;;;;7.28;4.63;;;15.60;74.80;;;;;;5058010;28;20047;-85
2022/09/23 14:54:23;;;;;;;5.47;4.45;;;15.70;74.80;;;;;;5039181;28;20119;-85
2022/09/23 14:56:49;;;;;;;6.00;4.70;;;15.60;74.90;;;;;;5048448;28;20107;-86
2022/09/23 14:59:49;;;;;;;6.72;4.72;;;15.60;75.00;;;;;;5021503;28;20515;-85
2022/09/23 15:02:32;;;;;;;5.63;4.47;;;15.60;75.10;;;;;;4994993;28;20067;-85
2022/09/23 15:05:17;;;;;;;4.97;4.28;;;15.60;75.00;;;;;;5039460;28;20321;-86
2022/09/23 15:07:47;;;;;;;5.85;4.43;;;15.60;75.20;;;;;;5045053;28;20495;-86
2022/09/23 15:10:24;;;;;;;6.07;4.85;;;15.60;75.20;;;;;;5019455;28;20041;-86
2022/09/23 15:12:53;;;;;;;7.20;4.97;;;15.60;75.10;;;;;;5032944;28;20125;-85
2022/09/23 15:15:24;;;;;;;5.38;4.57;;;15.60;75.10;;;;;;5031662;28;20041;-85
2022/09/23 15:17:50;;;;;;;7.00;4.90;;;15.50;75.10;;;;;;5012935;28;20029;-86
2022/09/23 15:20:25;;;;;;;7.03;5.22;;;15.50;75.30;;;;;;5008530;28;20044;-86
2022/09/23 15:22:54;;;;;;;6.68;4.55;;;15.50;75.40;;;;;;5028175;28;20052;-86
2022/09/23 15:25:40;;;;;;;5.35;4.72;;;15.50;75.40;;;;;;5023517;28;20037;-85
2022/09/23 15:28:12;;;;;;;7.35;5.13;;;15.50;75.60;;;;;;5009699;28;20036;-85
2022/09/23 15:30:38;;;;;;;5.88;4.57;;;15.50;75.60;;;;;;5041460;28;20040;-85
2022/09/23 15:33:05;;;;;;;4.90;4.03;;;15.50;75.70;;;;;;5009265;28;20032;-86
2022/09/23 15:35:31;;;;;;;5.78;4.57;;;15.50;75.80;;;;;;5025332;28;20538;-87
2022/09/23 15:38:00;;;;;;;5.70;5.00;;;15.40;75.60;;;;;;5022847;28;20041;-81
2022/09/23 15:40:29;;;;;;;6.78;4.90;;;15.40;75.70;;;;;;5041841;28;20038;-83
2022/09/23 15:42:58;;;;;;;7.38;4.63;;;15.50;75.90;;;;;;4999136;28;20065;-85
2022/09/23 15:45:41;;;;;;;7.15;5.28;;;15.40;76.10;;;;;;5038407;28;20025;-90
2022/09/23 15:48:12;;;;;;;5.15;4.60;;;15.50;76.10;;;;;;5011344;28;20034;-87
2022/09/23 15:50:44;;;;;;;6.95;4.65;;;15.40;76.00;;;;;;5050533;28;20515;-89
2022/09/23 15:53:19;;;;;;;7.78;5.18;;;15.50;76.30;;;;;;5010439;28;20080;-88
2022/09/23 15:55:45;;;;;;;6.43;4.95;;;15.40;76.50;;;;;;5018528;28;20504;-88
2022/09/23 15:58:11;;;;;;;6.22;4.80;;;15.40;76.50;;;;;;5035216;28;20039;-88
2022/09/23 16:00:37;;;;;;;6.15;5.00;;;15.40;76.60;;;;;;5035787;28;20116;-88
2022/09/23 16:03:04;;;;;;;6.22;5.20;;;15.40;76.60;;;;;;5034483;28;20115;-87
2022/09/23 16:05:36;;;;;;;7.30;4.75;;;15.40;76.80;;;;;;5022160;28;20091;-88
2022/09/23 16:08:04;;;;;;;7.43;5.80;;;15.40;77.00;;;;;;5037954;28;20033;-91
2022/09/23 16:10:31;;;;;;;7.22;5.38;;;15.40;77.10;;;;;;5024884;28;20114;-94
2022/09/23 16:13:01;;;;;;;7.55;5.38;;;15.40;77.30;;;;;;5040707;28;20067;-90
2022/09/23 16:15:30;;;;;;;7.97;5.57;;;15.40;77.60;;;;;;5058434;28;20093;-94
2022/09/23 16:17:56;;;;;;;7.68;5.30;;;15.40;77.70;;;;;;5032803;28;20166;-93
2022/09/23 16:20:23;;;;;;;7.05;5.07;;;15.40;77.70;;;;;;5025828;28;20033;-90
2022/09/23 16:22:59;;;;;;;6.70;4.93;;;15.40;77.70;;;;;;5030510;28;20041;-90
2022/09/23 16:25:28;;;;;;;7.43;4.72;;;15.40;77.80;;;;;;5066756;28;20028;-90
2022/09/23 16:27:56;;;;;;;8.23;4.38;;;15.30;77.90;;;;;;5039612;28;20092;-89
2022/09/23 16:30:27;;;;;;;7.00;4.90;;;15.30;78.00;;;;;;5061884;28;20029;-94
2022/09/23 16:32:54;;;;;;;7.35;4.70;;;15.30;78.20;;;;;;5026082;28;20047;-93
2022/09/23 16:35:22;;;;;;;5.13;4.43;;;15.30;78.20;;;;;;5041672;28;20098;-91
2022/09/23 16:37:48;;;;;;;5.10;4.60;;;15.30;78.30;;;;;;5025678;28;20037;-94
2022/09/23 16:40:20;;;;;;;7.63;4.53;;;15.30;78.60;;;;;;5058394;28;20041;-96
2022/09/23 16:42:47;;;;;;;6.20;4.63;;;15.30;78.60;;;;;;5040757;28;20037;-94
2022/09/23 16:45:15;;;;;;;7.47;4.65;;;15.30;78.80;;;;;;5039840;28;20032;-93
2022/09/23 16:47:47;;;;;;;7.68;4.72;;;15.20;78.70;;;;;;5038519;28;20060;-91
2022/09/23 16:50:16;;;;;;;6.22;4.68;;;15.20;78.80;;;;;;5083887;28;20042;-93
2022/09/23 16:52:43;;;;;;;7.53;5.00;;;15.20;78.90;;;;;;5034293;28;20499;-92
2022/09/23 16:55:11;;;;;;;7.13;4.75;;;15.20;79.10;;;;;;5046407;28;20598;-91
2022/09/23 16:57:38;;;;;;;7.18;5.35;;;15.20;79.20;;;;;;5073062;28;20043;-90
2022/09/23 17:05:43;;;;;;;5.40;4.60;;;15.20;79.00;;;;;;5041619;28;20041;-90
2022/09/23 17:08:12;;;;;;;7.03;4.50;;;15.20;79.10;;;;;;5034483;28;20041;-87
2022/09/23 17:10:39;;;;;;;7.07;4.60;;;15.20;79.90;;;;;;5046788;28;20540;-85
2022/09/23 17:13:07;;;;;;;7.93;5.18;;;15.20;79.40;;;;;;5056376;28;20065;-86
2022/09/23 17:15:39;;;;;;;7.18;3.95;;;15.20;79.50;;;;;;5054511;28;20371;-85
2022/09/23 17:18:06;;;;;;;7.45;4.68;;;15.20;79.40;;;;;;5031121;28;20054;-89
2022/09/23 17:20:33;;;;;;;6.13;4.50;;;15.20;79.30;;;;;;5037977;28;20085;-87
2022/09/23 17:22:59;;;;;;;5.13;4.45;;;15.20;79.00;;;;;;5029965;28;20060;-88
2022/09/23 17:25:25;;;;;;;5.28;4.78;;;15.20;79.00;;;;;;5038114;28;20041;-86
2022/09/23 17:27:51;;;;;;;5.65;4.78;;;15.10;78.90;;;;;;5055712;28;20029;-92
2022/09/23 17:30:18;;;;;;;5.50;4.00;;;15.10;79.00;;;;;;5039689;28;20122;-88
2022/09/23 17:32:44;;;;;;;5.53;4.63;;;15.10;79.00;;;;;;5044193;28;20021;-91
2022/09/23 17:35:10;;;;;;;5.05;4.50;;;15.10;79.20;;;;;;5059624;28;20052;-89
2022/09/23 17:37:36;;;;;;;6.07;4.53;;;15.00;79.00;;;;;;5051133;28;20048;-92
2022/09/23 17:40:03;;;;;;;6.28;4.75;;;15.00;78.90;;;;;;5046904;28;20395;-92
2022/09/23 17:42:29;;;;;;;5.03;4.53;;;15.00;78.90;;;;;;5020683;28;20030;-88
2022/09/23 17:44:57;;;;;;;5.10;4.43;;;15.00;78.90;;;;;;5027379;28;20045;-86
2022/09/23 17:47:23;;;;;;;5.95;4.47;;;14.90;79.00;;;;;;5073881;28;20032;-81
2022/09/23 17:49:49;;;;;;;6.05;4.57;;;14.90;79.20;;;;;;5045293;28;20048;-86
2022/09/23 17:52:16;;;;;;;4.88;4.35;;;14.90;79.40;;;;;;5024834;28;20038;-86
2022/09/23 17:54:42;;;;;;;6.45;4.95;;;14.90;79.40;;;;;;5047370;28;20020;-94
2022/09/23 17:57:08;;;;;;;5.30;4.28;;;14.90;79.60;;;;;;5023783;28;20038;-95
2022/09/23 17:59:34;;;;;;;6.90;4.72;;;14.90;79.60;;;;;;5066310;28;20053;-92
2022/09/23 18:02:00;;;;;;;6.22;4.97;;;14.90;79.60;;;;;;5043095;28;20045;-85
2022/09/23 18:04:26;;;;;;;6.45;4.50;;;14.90;79.60;;;;;;5018866;28;20588;-86
2022/09/23 18:06:52;;;;;;;6.97;4.70;;;14.90;79.60;;;;;;5010676;28;20120;-87
2022/09/23 18:09:18;;;;;;;6.93;4.80;;;14.80;79.60;;;;;;5026455;28;20684;-87
2022/09/23 18:11:48;;;;;;;5.60;4.13;;;14.80;79.80;;;;;;5001844;28;20021;-86
2022/09/23 18:14:19;;;;;;;5.72;4.60;;;14.80;79.80;;;;;;5042398;28;20044;-87
2022/09/23 18:16:49;;;;;;;5.30;4.50;;;14.80;79.80;;;;;;5021949;28;20566;-86
2022/09/23 18:19:17;;;;;;;6.35;4.10;;;14.80;79.90;;;;;;5025820;28;20074;-85
2022/09/23 18:21:53;;;;;;;5.53;4.50;;;14.80;80.00;;;;;;5041301;28;20033;-85
2022/09/23 18:24:19;;;;;;;;;;;14.80;79.90;;;;;;5012802;28;20040;-88
2022/09/23 18:26:46;;;;;;;6.18;4.25;;;14.80;80.00;;;;;;5025837;28;19910;-86
2022/09/23 18:29:13;;;;;;;6.80;4.65;;;14.80;79.90;;;;;;5037409;28;20040;-84
2022/09/23 18:31:39;;;;;;;7.50;4.15;;;14.80;80.00;;;;;;5041109;28;20048;-87
2022/09/23 18:34:10;;;;;;;7.10;4.60;;;14.80;80.00;;;;;;5008651;28;20040;-87
2022/09/23 18:36:36;;;;;;;5.32;4.28;;;14.80;80.00;;;;;;5041076;28;20036;-86
2022/09/23 18:39:03;;;;;;;5.95;4.28;;;14.80;80.10;;;;;;4999439;28;20040;-87
2022/09/23 18:41:29;;;;;;;5.30;4.20;;;14.80;80.20;;;;;;5028556;28;20037;-87
2022/09/23 18:43:56;;;;;;;6.78;4.15;;;14.80;80.20;;;;;;5007880;28;20044;-84
2022/09/23 18:46:24;;;;;;;5.85;4.13;;;14.80;80.30;;;;;;5044047;28;20061;-88
2022/09/23 18:51:37;;;;;;;6.10;4.63;;;14.80;80.50;;;;;;5054815;23;20286;-82
2022/09/23 18:54:06;;;;;;;4.90;4.00;;;14.80;80.60;;;;;;5056603;28;20033;-82
2022/09/23 18:56:40;;;;;;;6.93;4.35;;;14.80;80.70;;;;;;5038171;28;20029;-84
2022/09/23 18:59:08;;;;;;;5.30;4.47;;;14.80;80.80;;;;;;5036421;28;20045;-85
2022/09/23 19:01:34;;;;;;;6.78;4.38;;;14.70;80.70;;;;;;5035928;28;20487;-83
2022/09/23 19:04:01;;;;;;;4.45;3.72;;;14.80;80.80;;;;;;5021694;28;20030;-83
2022/09/23 19:06:28;;;;;;;5.47;4.30;;;14.70;80.70;;;;;;5025525;28;20430;-82
2022/09/23 19:08:55;;;;;;;5.22;4.13;;;14.80;80.80;;;;;;5039527;28;20028;-84
2022/09/23 19:11:22;;;;;;;5.05;4.28;;;14.70;80.80;;;;;;5057234;28;20028;-84
2022/09/23 19:13:57;;;;;;;4.78;4.10;;;14.80;81.00;;;;;;5054663;28;20525;-83
2022/09/23 19:16:24;;;;;;;6.65;4.45;;;14.70;80.80;;;;;;5038664;28;20060;-81